Time;durP1;ratioP1;P1;durP2;ratioP2;P2;SDS_P1;SDS_P2;PMS_P1;PMS_P2;Temp;Humidity;BMP_temperature;BMP_pressure;BME280_temperature;BME280_humidity;BME280_pressure;Samples;Min_cycle;Max_cycle;Signal;HPM_P1;HPM_P2
2022/03/10 07:28:20;;;;;;;28.83;10.93;;;19.90;46.40;;;;;;1413547;27;20350;-59
2022/03/10 07:29:01;;;;;;;40.13;11.85;;;20.00;43.60;;;;;;1381697;27;20771;-60
2022/03/10 07:29:42;;;;;;;30.30;11.55;;;20.10;43.40;;;;;;1391740;28;20033;-57
2022/03/10 07:30:22;;;;;;;36.75;11.25;;;20.10;43.20;;;;;;1388760;28;20374;-62
2022/03/10 07:31:03;;;;;;;31.90;11.93;;;20.20;42.90;;;;;;1379944;28;20441;-61
2022/03/10 07:31:43;;;;;;;43.40;12.50;;;20.20;42.70;;;;;;1357530;28;20046;-62
2022/03/10 07:32:28;;;;;;;31.88;11.82;;;20.20;42.60;;;;;;1355575;28;20026;-62
2022/03/10 07:33:09;;;;;;;22.83;10.60;;;20.30;42.70;;;;;;1380777;28;20064;-61
2022/03/10 07:33:50;;;;;;;25.90;10.73;;;20.30;64.80;;;;;;1385003;28;20497;-62
2022/03/10 07:40:14;;;;;;;32.40;10.10;;;20.50;64.50;;;;;;6222341;27;20222;-66
2022/03/10 07:43:15;;;;;;;24.67;9.73;;;20.40;59.90;;;;;;6209942;28;20049;-64
2022/03/10 07:46:15;;;;;;;19.65;8.50;;;20.40;60.50;;;;;;6209622;28;20096;-65
2022/03/10 07:49:17;;;;;;;34.95;11.07;;;20.50;60.70;;;;;;6194082;28;20042;-67
2022/03/10 07:52:17;;;;;;;21.27;9.13;;;20.50;60.60;;;;;;6219761;28;20452;-63
2022/03/10 07:55:18;;;;;;;24.05;8.52;;;20.50;60.70;;;;;;6218781;28;20335;-63
2022/03/10 07:58:19;;;;;;;19.92;9.07;;;20.50;60.90;;;;;;6219578;28;20048;-69
2022/03/10 08:01:19;;;;;;;21.15;7.30;;;20.60;61.60;;;;;;6219806;28;20034;-76
2022/03/10 08:09:31;;;;;;;18.70;8.35;;;21.30;69.60;;;;;;6265884;27;20908;-60
2022/03/10 08:12:33;;;;;;;27.25;8.73;;;21.20;65.50;;;;;;6213554;28;20051;-60
2022/03/10 08:15:33;;;;;;;23.25;10.05;;;21.20;65.80;;;;;;6253339;28;20502;-60
2022/03/10 08:18:34;;;;;;;21.17;8.10;;;21.30;66.10;;;;;;6292327;28;20024;-60
2022/03/10 08:21:35;;;;;;;18.58;7.90;;;21.30;66.20;;;;;;6294218;28;20052;-61
2022/03/10 08:24:36;;;;;;;16.98;8.15;;;21.40;66.20;;;;;;6274437;28;20053;-60
2022/03/10 08:27:36;;;;;;;18.38;7.72;;;21.50;66.10;;;;;;6268960;28;20094;-60
2022/03/10 08:30:37;;;;;;;23.15;7.60;;;21.60;66.40;;;;;;6268780;28;20025;-61
2022/03/10 08:33:38;;;;;;;17.85;7.32;;;21.60;66.40;;;;;;6268814;28;20025;-60
2022/03/10 08:36:38;;;;;;;18.92;7.38;;;21.60;66.20;;;;;;6269282;28;20040;-60
2022/03/10 08:39:39;;;;;;;14.15;6.97;;;21.70;66.30;;;;;;6268746;28;20025;-60
2022/03/10 08:42:39;;;;;;;11.38;6.35;;;21.70;66.40;;;;;;6268445;28;20108;-61
2022/03/10 08:45:40;;;;;;;18.10;7.25;;;21.80;66.40;;;;;;6268639;28;20032;-61
2022/03/10 08:48:41;;;;;;;10.60;6.35;;;21.80;66.30;;;;;;6268446;28;20489;-60
2022/03/10 08:51:42;;;;;;;13.60;6.80;;;21.80;66.20;;;;;;6268532;28;20029;-61
2022/03/10 08:54:43;;;;;;;17.00;7.40;;;21.90;66.20;;;;;;6268497;28;20079;-60
2022/03/10 08:57:43;;;;;;;12.40;7.35;;;21.80;66.20;;;;;;6268362;28;20036;-61
2022/03/10 09:00:44;;;;;;;15.48;7.35;;;21.90;66.20;;;;;;6268674;28;20456;-60
2022/03/10 09:03:45;;;;;;;18.00;6.80;;;21.90;66.10;;;;;;6268061;28;20442;-61
2022/03/10 09:06:45;;;;;;;14.98;7.63;;;21.90;66.20;;;;;;6267982;28;20037;-60
2022/03/10 09:09:46;;;;;;;10.73;6.82;;;22.00;66.30;;;;;;6268102;28;20108;-61
2022/03/10 09:12:46;;;;;;;12.52;7.28;;;21.90;65.30;;;;;;6268171;28;20045;-60
2022/03/10 09:15:48;;;;;;;11.15;7.65;;;21.90;64.10;;;;;;6268556;28;20096;-60
2022/03/10 09:18:48;;;;;;;12.10;6.40;;;21.90;64.20;;;;;;6262393;28;20029;-59
2022/03/10 09:21:49;;;;;;;17.55;7.72;;;21.90;64.40;;;;;;6251880;28;20041;-60
2022/03/10 09:24:50;;;;;;;13.30;6.32;;;21.90;64.70;;;;;;6251146;28;20029;-60
2022/03/10 09:27:50;;;;;;;12.35;7.20;;;22.00;65.10;;;;;;6251503;28;20108;-61
2022/03/10 09:30:54;;;;;;;11.80;7.18;;;22.00;65.20;;;;;;6251632;28;20481;-58
2022/03/10 09:33:54;;;;;;;12.23;6.80;;;22.00;65.40;;;;;;6251611;28;20463;-59
2022/03/10 09:36:55;;;;;;;10.68;6.80;;;22.00;65.50;;;;;;6251967;28;20025;-58
2022/03/10 09:39:55;;;;;;;8.65;6.43;;;22.00;65.50;;;;;;6252655;28;20085;-59
2022/03/10 09:42:56;;;;;;;9.23;6.55;;;22.00;65.70;;;;;;6251566;28;20053;-60
2022/03/10 09:45:57;;;;;;;10.18;6.72;;;22.00;65.80;;;;;;6250044;28;20102;-61
2022/03/10 09:48:57;;;;;;;8.95;6.28;;;22.00;65.80;;;;;;6233798;28;20037;-60
2022/03/10 09:51:58;;;;;;;9.55;5.85;;;21.90;64.30;;;;;;6235291;28;20233;-60
2022/03/10 09:54:59;;;;;;;14.15;7.20;;;21.90;64.50;;;;;;6251533;28;20041;-59
2022/03/10 09:58:00;;;;;;;23.70;7.20;;;21.90;64.80;;;;;;6253399;28;20087;-59
2022/03/10 10:01:01;;;;;;;12.70;6.97;;;22.00;65.00;;;;;;6249669;28;20029;-60
2022/03/10 10:04:02;;;;;;;10.27;6.00;;;22.00;65.20;;;;;;6250555;28;20485;-59
2022/03/10 10:07:05;;;;;;;7.72;5.35;;;22.00;65.30;;;;;;6250163;28;20061;-60
2022/03/10 10:10:06;;;;;;;18.48;6.28;;;22.00;65.50;;;;;;6250105;28;20465;-59
2022/03/10 10:13:07;;;;;;;11.77;7.10;;;22.00;65.70;;;;;;6250214;28;20026;-60
2022/03/10 10:16:08;;;;;;;8.65;5.90;;;22.00;65.70;;;;;;6250444;28;20100;-59
2022/03/10 10:19:16;;;;;;;20.88;6.18;;;22.00;65.90;;;;;;6249644;28;20098;-59
2022/03/10 10:22:19;;;;;;;10.85;6.15;;;22.00;65.90;;;;;;6249930;28;20033;-59
2022/03/10 10:25:20;;;;;;;8.90;5.50;;;22.00;66.00;;;;;;6249724;28;20430;-60
2022/03/10 10:28:29;;;;;;;7.35;5.50;;;22.00;66.00;;;;;;6249750;28;20089;-58
2022/03/10 10:31:30;;;;;;;9.73;6.28;;;22.00;65.10;;;;;;6248662;28;20071;-59
2022/03/10 10:34:30;;;;;;;12.45;7.00;;;21.90;64.60;;;;;;6249726;28;20421;-60
2022/03/10 10:37:31;;;;;;;11.63;6.35;;;21.90;64.80;;;;;;6249476;28;20546;-60
2022/03/10 10:40:33;;;;;;;13.82;6.47;;;21.90;64.90;;;;;;6249672;28;20029;-58
2022/03/10 10:43:41;;;;;;;9.02;6.60;;;22.00;65.30;;;;;;6249640;28;20029;-59
2022/03/10 10:46:43;;;;;;;12.25;6.45;;;22.00;65.50;;;;;;6248931;28;20418;-60
2022/03/10 10:49:43;;;;;;;7.90;6.05;;;22.00;65.50;;;;;;6249157;28;20033;-60
2022/03/10 10:52:44;;;;;;;12.45;6.65;;;22.20;41.70;;;;;;6250550;28;20466;-62
2022/03/10 10:55:45;;;;;;;14.98;7.22;;;22.20;37.40;;;;;;6251054;28;20471;-61
2022/03/10 10:58:46;;;;;;;8.00;6.57;;;22.20;36.10;;;;;;6264320;28;20060;-61
2022/03/10 11:01:46;;;;;;;10.23;6.40;;;22.20;35.50;;;;;;6249306;28;20524;-64
2022/03/10 11:04:53;;;;;;;12.68;7.22;;;22.20;35.00;;;;;;6249085;28;20033;-68
2022/03/10 11:07:55;;;;;;;13.48;8.18;;;22.20;34.60;;;;;;6260758;28;20498;-64
2022/03/10 11:10:56;;;;;;;34.45;21.83;;;22.20;34.30;;;;;;6233397;28;20032;-66
2022/03/10 11:13:56;;;;;;;36.35;21.80;;;22.00;34.00;;;;;;6250633;28;20033;-64
2022/03/10 11:16:58;;;;;;;25.67;19.42;;;21.90;33.60;;;;;;6251308;28;20063;-64
2022/03/10 11:19:58;;;;;;;31.05;16.50;;;21.80;33.50;;;;;;6245895;28;20041;-66
2022/03/10 11:22:59;;;;;;;28.83;15.52;;;21.90;33.50;;;;;;6245971;28;20041;-66
2022/03/10 11:26:07;;;;;;;28.23;15.00;;;21.90;33.40;;;;;;6247539;28;20104;-60
2022/03/10 11:29:08;;;;;;;27.38;14.35;;;21.90;33.30;;;;;;6224603;28;20045;-60
2022/03/10 11:32:11;;;;;;;21.23;13.00;;;21.90;33.30;;;;;;6223438;28;20711;-58
2022/03/10 11:35:16;;;;;;;19.00;11.95;;;21.90;33.30;;;;;;6226849;28;20026;-60
2022/03/10 11:38:17;;;;;;;16.73;11.82;;;21.90;33.20;;;;;;6223774;28;20041;-62
2022/03/10 11:41:18;;;;;;;21.33;12.30;;;21.90;33.10;;;;;;6230565;28;20026;-61
2022/03/10 11:44:20;;;;;;;21.20;11.97;;;22.00;33.10;;;;;;6242860;28;20064;-61
2022/03/10 11:47:22;;;;;;;21.27;12.30;;;22.10;33.10;;;;;;6226826;28;20292;-61
2022/03/10 11:50:22;;;;;;;16.27;10.90;;;22.10;33.00;;;;;;6224917;28;20513;-61
2022/03/10 11:53:23;;;;;;;20.83;9.65;;;22.10;33.10;;;;;;6224066;28;20026;-66
2022/03/10 11:56:49;;;;;;;18.73;11.02;;;22.20;33.20;;;;;;6225868;28;20064;-65
2022/03/10 11:59:50;;;;;;;16.33;10.65;;;22.30;32.80;;;;;;6224036;28;20076;-65
2022/03/10 12:02:57;;;;;;;12.68;9.70;;;22.40;32.80;;;;;;6233476;28;20479;-63
2022/03/10 12:06:05;;;;;;;20.70;9.68;;;22.30;32.70;;;;;;6247680;28;20037;-64
2022/03/10 12:09:06;;;;;;;16.38;9.32;;;22.40;32.70;;;;;;6233043;28;20057;-64
2022/03/10 12:12:13;;;;;;;16.27;9.48;;;22.40;32.60;;;;;;6230031;28;20025;-64
2022/03/10 12:15:23;;;;;;;13.85;9.02;;;22.50;32.70;;;;;;6247874;28;20037;-64
2022/03/10 12:18:41;;;;;;;10.75;8.52;;;22.50;32.60;;;;;;6247932;28;20025;-64
2022/03/10 12:21:42;;;;;;;10.65;8.13;;;22.50;32.60;;;;;;6249080;28;20089;-62
2022/03/10 12:24:44;;;;;;;11.52;8.68;;;22.50;32.60;;;;;;6245818;28;20034;-63
2022/03/10 12:27:52;;;;;;;12.15;8.30;;;22.60;32.60;;;;;;6229740;28;20042;-63
2022/03/10 12:31:18;;;;;;;12.05;8.13;;;22.70;32.60;;;;;;6238422;28;20112;-65
2022/03/10 12:34:25;;;;;;;11.55;8.48;;;22.70;32.50;;;;;;6246948;28;20042;-65
2022/03/10 12:37:28;;;;;;;12.00;8.32;;;22.70;32.50;;;;;;6246827;28;20033;-65
2022/03/10 12:40:30;;;;;;;9.77;7.95;;;22.80;32.50;;;;;;6247182;28;20057;-67
2022/03/10 12:43:30;;;;;;;7.95;7.15;;;22.80;32.60;;;;;;6247359;28;20025;-67
2022/03/10 12:46:32;;;;;;;11.05;8.40;;;22.80;32.50;;;;;;6242899;28;20029;-67
2022/03/10 12:49:53;;;;;;;10.90;8.50;;;22.70;32.40;;;;;;6243051;28;20033;-67
2022/03/10 12:52:55;;;;;;;8.68;7.57;;;22.60;32.30;;;;;;6246664;28;20030;-68
2022/03/10 12:55:56;;;;;;;9.07;7.90;;;22.60;32.30;;;;;;6252921;28;20437;-67
2022/03/10 12:58:57;;;;;;;8.60;7.70;;;22.60;32.30;;;;;;6252028;28;20034;-67
2022/03/10 13:02:13;;;;;;;12.20;7.45;;;22.50;32.40;;;;;;6252118;28;20021;-67
2022/03/10 13:05:23;;;;;;;17.65;8.05;;;22.50;32.40;;;;;;6251290;28;20386;-66
2022/03/10 13:08:24;;;;;;;16.92;8.73;;;22.50;32.30;;;;;;6269865;28;20141;-64
2022/03/10 13:11:29;;;;;;;26.05;9.00;;;22.50;32.40;;;;;;6249452;28;20037;-62
2022/03/10 13:14:40;;;;;;;36.80;9.68;;;22.50;32.30;;;;;;6231845;28;20064;-64
2022/03/10 13:17:41;;;;;;;25.77;8.88;;;22.50;32.60;;;;;;6243230;28;20033;-64
2022/03/10 13:20:42;;;;;;;18.48;9.25;;;22.50;32.40;;;;;;6249231;28;20025;-65
2022/03/10 13:23:42;;;;;;;20.48;8.60;;;22.40;32.30;;;;;;6265683;28;20111;-64
2022/03/10 13:26:43;;;;;;;15.25;8.32;;;22.40;32.30;;;;;;6252207;28;20029;-64
2022/03/10 13:29:53;;;;;;;14.18;8.60;;;22.40;32.30;;;;;;6251251;28;20037;-64
2022/03/10 13:32:58;;;;;;;18.40;8.63;;;22.30;32.20;;;;;;6252172;28;20033;-65
2022/03/10 13:35:58;;;;;;;13.00;7.90;;;22.30;32.20;;;;;;6252692;28;20471;-65
2022/03/10 13:38:59;;;;;;;13.30;8.60;;;22.30;32.20;;;;;;6233999;28;20032;-65
2022/03/10 13:42:00;;;;;;;13.40;7.82;;;22.30;32.20;;;;;;6250059;28;20526;-64
2022/03/10 13:45:08;;;;;;;11.90;8.13;;;22.30;32.20;;;;;;6251005;28;20076;-64
2022/03/10 13:48:19;;;;;;;13.85;7.85;;;22.20;32.10;;;;;;6251817;28;20041;-65
2022/03/10 13:51:21;;;;;;;10.40;7.80;;;22.20;32.10;;;;;;6249712;28;20414;-64
2022/03/10 13:54:23;;;;;;;;;;;22.20;32.20;;;;;;6251161;28;20034;-65
2022/03/10 13:57:24;;;;;;;8.88;7.97;;;22.20;32.10;;;;;;6249157;28;20006;-64
2022/03/10 14:00:35;;;;;;;11.18;7.65;;;22.20;32.10;;;;;;6232819;28;20033;-65
2022/03/10 14:03:42;;;;;;;10.93;8.37;;;22.20;32.10;;;;;;6250524;28;20414;-64
2022/03/10 14:06:45;;;;;;;12.23;8.52;;;22.10;32.10;;;;;;6250699;28;20264;-64
2022/03/10 14:09:47;;;;;;;8.20;7.03;;;22.10;32.10;;;;;;6250598;28;20505;-65
2022/03/10 14:12:48;;;;;;;9.38;7.35;;;22.10;32.10;;;;;;6249044;28;20116;-63
2022/03/10 14:15:50;;;;;;;9.32;6.95;;;22.10;32.10;;;;;;6249113;28;20037;-63
2022/03/10 14:18:51;;;;;;;10.10;7.85;;;22.10;32.10;;;;;;6232168;28;20067;-64
2022/03/10 14:21:51;;;;;;;8.90;7.40;;;22.10;32.10;;;;;;6249949;28;20029;-64
2022/03/10 14:24:57;;;;;;;9.57;7.47;;;22.10;32.10;;;;;;6248490;28;20021;-63
2022/03/10 14:28:03;;;;;;;8.32;7.53;;;22.10;32.10;;;;;;6249923;28;20033;-63
2022/03/10 14:31:18;;;;;;;8.15;7.35;;;22.10;32.10;;;;;;6233241;28;20032;-64
2022/03/10 14:34:18;;;;;;;8.82;7.88;;;22.00;32.00;;;;;;6249955;28;20022;-64
2022/03/10 14:37:19;;;;;;;8.10;7.30;;;22.00;32.00;;;;;;6231476;28;20045;-64
2022/03/10 14:40:19;;;;;;;9.52;7.55;;;22.00;32.10;;;;;;6250024;28;20033;-64
2022/03/10 14:43:20;;;;;;;8.23;7.40;;;21.90;32.00;;;;;;6249301;28;20529;-64
2022/03/10 14:46:21;;;;;;;7.80;7.00;;;21.90;32.00;;;;;;6249670;28;20026;-64
2022/03/10 14:49:21;;;;;;;7.60;6.90;;;21.90;32.10;;;;;;6249168;28;20116;-63
2022/03/10 14:52:22;;;;;;;10.80;7.75;;;21.90;32.00;;;;;;6249132;28;20025;-64
2022/03/10 14:55:23;;;;;;;7.68;6.93;;;21.90;32.00;;;;;;6249335;28;20410;-64
2022/03/10 14:58:24;;;;;;;8.00;7.20;;;21.90;32.10;;;;;;6248785;28;20057;-64
2022/03/10 15:01:25;;;;;;;10.97;7.33;;;21.80;32.00;;;;;;6249691;28;20033;-63
2022/03/10 15:04:26;;;;;;;8.47;7.10;;;21.80;32.10;;;;;;6249237;28;20048;-64
2022/03/10 15:07:27;;;;;;;7.50;6.60;;;21.80;32.10;;;;;;6249192;28;20312;-67
2022/03/10 15:10:27;;;;;;;8.85;7.47;;;21.80;32.10;;;;;;6247865;28;20026;-67
2022/03/10 15:13:28;;;;;;;10.63;8.25;;;21.80;32.10;;;;;;6248161;28;20025;-67
2022/03/10 15:16:29;;;;;;;13.25;10.63;;;21.80;32.00;;;;;;6248265;28;20033;-67
2022/03/10 15:19:29;;;;;;;11.55;10.35;;;21.90;32.00;;;;;;6241673;28;20039;-67
2022/03/10 15:22:30;;;;;;;12.32;10.20;;;21.90;32.00;;;;;;6229609;28;20029;-67
2022/03/10 15:25:32;;;;;;;119.80;15.70;;;21.80;32.00;;;;;;6246638;28;20030;-63
2022/03/10 15:28:32;;;;;;;;;;;21.80;32.00;;;;;;6247656;28;20045;-66
2022/03/10 15:31:33;;;;;;;32.20;13.00;;;21.80;32.20;;;;;;6248615;28;19971;-65
2022/03/10 15:34:34;;;;;;;22.05;11.77;;;21.90;32.20;;;;;;6248137;28;20459;-66
2022/03/10 15:37:35;;;;;;;26.52;12.60;;;21.90;32.10;;;;;;6235745;28;20026;-65
2022/03/10 15:40:36;;;;;;;19.02;12.77;;;21.90;32.10;;;;;;6235496;28;20416;-66
2022/03/10 15:43:38;;;;;;;20.67;12.53;;;21.90;32.00;;;;;;6247860;28;20038;-65
2022/03/10 15:46:38;;;;;;;13.60;9.95;;;21.90;32.00;;;;;;6246014;28;20056;-65
2022/03/10 15:49:39;;;;;;;14.70;9.02;;;21.90;32.60;;;;;;6247621;28;20445;-65
2022/03/10 15:52:40;;;;;;;15.57;10.15;;;21.80;32.00;;;;;;6246842;28;20018;-65
2022/03/10 15:55:42;;;;;;;18.20;9.68;;;21.80;32.20;;;;;;6226882;28;20088;-65
2022/03/10 15:58:43;;;;;;;12.60;9.30;;;21.80;32.20;;;;;;6223055;28;20029;-65
2022/03/10 16:01:44;;;;;;;17.50;9.50;;;21.80;32.20;;;;;;6222164;28;20122;-66
2022/03/10 16:04:44;;;;;;;25.95;10.93;;;21.80;32.20;;;;;;6223440;28;20030;-65
2022/03/10 16:07:45;;;;;;;17.50;10.05;;;21.80;32.20;;;;;;6223177;28;20152;-67
2022/03/10 16:10:46;;;;;;;12.57;9.13;;;21.80;32.10;;;;;;6223544;28;20464;-66
2022/03/10 16:13:46;;;;;;;13.43;9.93;;;21.80;32.20;;;;;;6223587;28;20030;-65
2022/03/10 16:16:47;;;;;;;15.07;10.30;;;21.80;32.30;;;;;;6223488;28;20033;-66
2022/03/10 16:19:48;;;;;;;13.75;9.52;;;21.80;32.20;;;;;;6223974;28;20448;-85
2022/03/10 16:22:50;;;;;;;12.80;8.68;;;21.80;32.20;;;;;;6210109;28;20033;-62
2022/03/10 16:25:50;;;;;;;;;;;21.80;32.10;;;;;;6247871;28;20026;-62
2022/03/10 16:28:51;;;;;;;14.35;9.13;;;21.90;32.20;;;;;;6248229;28;19955;-62
2022/03/10 16:31:51;;;;;;;11.57;8.38;;;21.80;32.20;;;;;;6252478;28;20022;-62
2022/03/10 16:34:52;;;;;;;11.10;8.63;;;21.90;32.30;;;;;;6252604;28;20026;-62
2022/03/10 16:37:53;;;;;;;17.38;8.27;;;21.90;32.30;;;;;;6267546;28;20033;-61
2022/03/10 16:40:54;;;;;;;9.80;7.50;;;21.90;32.30;;;;;;6252506;28;20478;-61
2022/03/10 16:43:56;;;;;;;14.50;8.85;;;21.90;32.40;;;;;;6234576;28;20040;-62
2022/03/10 16:46:56;;;;;;;;;;;21.90;32.40;;;;;;6251559;28;20036;-62
2022/03/10 16:49:57;;;;;;;9.25;7.43;;;21.90;32.40;;;;;;6252205;28;19905;-62
2022/03/10 16:52:57;;;;;;;10.30;8.15;;;22.00;32.40;;;;;;6252262;28;20116;-62
2022/03/10 16:55:58;;;;;;;11.70;7.20;;;22.00;32.40;;;;;;6234256;28;20056;-62
2022/03/10 16:58:59;;;;;;;10.70;7.55;;;22.00;32.40;;;;;;6251728;28;20467;-62
2022/03/10 17:02:00;;;;;;;12.33;8.67;;;22.00;32.40;;;;;;6250948;28;20437;-62
2022/03/10 17:05:00;;;;;;;11.23;7.57;;;22.00;32.40;;;;;;6251629;28;20025;-63
2022/03/10 17:08:01;;;;;;;9.25;7.47;;;22.10;32.40;;;;;;6251678;28;20148;-62
2022/03/10 17:11:02;;;;;;;10.25;6.93;;;22.00;32.40;;;;;;6251601;28;20049;-62
2022/03/10 17:14:02;;;;;;;8.55;7.00;;;22.10;32.50;;;;;;6251101;28;20025;-61
2022/03/10 17:17:03;;;;;;;9.30;7.35;;;22.10;32.50;;;;;;6251331;28;20099;-66
2022/03/10 17:20:04;;;;;;;8.73;6.63;;;22.10;33.10;;;;;;6251122;28;20026;-57
2022/03/10 17:23:04;;;;;;;10.65;6.60;;;21.60;33.00;;;;;;6251239;28;20482;-59
2022/03/10 17:26:05;;;;;;;8.10;6.70;;;21.40;33.00;;;;;;6251535;28;20108;-59
2022/03/10 17:29:06;;;;;;;12.02;7.10;;;21.30;33.00;;;;;;6250485;28;20041;-59
2022/03/10 17:32:07;;;;;;;7.20;6.32;;;21.30;33.00;;;;;;6250232;28;20571;-57
2022/03/10 17:35:08;;;;;;;8.93;6.93;;;21.30;33.00;;;;;;6252097;28;20037;-58
2022/03/10 17:38:11;;;;;;;19.98;8.45;;;21.30;33.10;;;;;;6251252;28;20093;-58
2022/03/10 17:41:12;;;;;;;29.58;10.65;;;21.30;33.00;;;;;;6251679;28;20053;-60
2022/03/10 17:44:13;;;;;;;32.92;10.65;;;21.20;32.90;;;;;;6252042;28;20033;-58
2022/03/10 17:47:14;;;;;;;35.38;11.07;;;21.20;32.90;;;;;;6251438;28;20033;-58
2022/03/10 17:50:15;;;;;;;28.65;10.30;;;21.20;33.00;;;;;;6235676;28;20045;-58
2022/03/10 17:53:17;;;;;;;28.70;10.80;;;21.20;32.90;;;;;;6251393;28;20061;-59
2022/03/10 17:56:17;;;;;;;23.83;9.63;;;21.20;32.90;;;;;;6237347;28;20184;-60
2022/03/10 17:59:20;;;;;;;29.60;11.67;;;21.10;32.90;;;;;;6251845;28;20260;-59
2022/03/10 18:02:22;;;;;;;27.33;11.23;;;21.10;32.90;;;;;;6253014;28;20094;-60
2022/03/10 18:05:22;;;;;;;;;;;21.10;33.00;;;;;;6252251;28;20079;-59
2022/03/10 18:08:23;;;;;;;24.15;10.35;;;21.10;32.90;;;;;;6254138;28;19921;-59
2022/03/10 18:11:23;;;;;;;33.70;12.57;;;21.00;32.90;;;;;;6253888;28;20030;-58
2022/03/10 18:14:24;;;;;;;33.28;12.68;;;21.00;32.90;;;;;;6252028;28;20029;-61
2022/03/10 18:17:25;;;;;;;35.38;15.30;;;21.00;32.90;;;;;;6252923;28;20037;-58
2022/03/10 18:20:25;;;;;;;56.92;40.20;;;21.00;32.90;;;;;;6252572;28;20056;-60
2022/03/10 18:23:28;;;;;;;35.92;23.13;;;21.00;33.00;;;;;;6253009;28;20025;-61
2022/03/10 18:26:29;;;;;;;46.63;32.67;;;21.00;33.00;;;;;;6249239;28;20037;-60
2022/03/10 18:29:29;;;;;;;41.17;28.52;;;21.00;33.00;;;;;;6253033;28;20033;-61
2022/03/10 18:32:30;;;;;;;43.13;27.45;;;20.90;32.90;;;;;;6252233;28;20033;-60
2022/03/10 18:35:31;;;;;;;45.25;35.50;;;20.90;32.90;;;;;;6251876;28;20450;-60
2022/03/10 18:38:31;;;;;;;48.92;33.50;;;20.90;33.00;;;;;;6250768;28;20104;-60
2022/03/10 18:41:32;;;;;;;53.80;34.10;;;20.90;33.00;;;;;;6251237;28;20132;-61
2022/03/10 18:44:32;;;;;;;56.38;36.88;;;20.90;33.00;;;;;;6250754;28;20040;-61
2022/03/10 18:47:33;;;;;;;52.00;34.53;;;20.80;33.00;;;;;;6250262;28;20052;-59
2022/03/10 18:50:34;;;;;;;58.95;36.15;;;20.80;33.00;;;;;;6250006;28;20060;-66
2022/03/10 18:53:34;;;;;;;68.28;32.33;;;20.90;33.10;;;;;;6248672;28;20082;-68
2022/03/10 18:56:35;;;;;;;56.97;33.15;;;20.90;33.10;;;;;;6249701;28;20029;-64
2022/03/10 18:59:35;;;;;;;53.50;29.40;;;21.00;33.10;;;;;;6249467;28;20025;-64
2022/03/10 19:02:36;;;;;;;49.20;30.02;;;20.90;33.10;;;;;;6249860;28;20031;-63
2022/03/10 19:05:37;;;;;;;51.45;29.25;;;20.90;33.20;;;;;;6254783;28;20025;-64
2022/03/10 19:08:37;;;;;;;93.93;44.33;;;21.00;32.70;;;;;;6253063;28;20061;-64
2022/03/10 19:11:38;;;;;;;79.88;50.45;;;21.10;32.80;;;;;;6249634;28;20478;-64
2022/03/10 19:14:39;;;;;;;73.30;45.28;;;21.10;33.00;;;;;;6250628;28;20112;-64
2022/03/10 19:17:39;;;;;;;71.55;44.20;;;21.10;33.10;;;;;;6275673;28;20032;-66
2022/03/10 19:20:40;;;;;;;67.03;38.50;;;21.10;33.20;;;;;;6275721;28;20078;-65
2022/03/10 19:23:40;;;;;;;53.72;32.67;;;21.00;33.20;;;;;;6262622;28;20078;-65
2022/03/10 19:26:41;;;;;;;52.25;31.70;;;21.00;33.30;;;;;;6249342;28;20029;-66
2022/03/10 19:29:42;;;;;;;47.60;30.10;;;21.00;33.30;;;;;;6249698;28;20129;-65
2022/03/10 19:32:43;;;;;;;52.90;32.80;;;21.00;33.30;;;;;;6249998;28;20030;-65
2022/03/10 19:35:48;;;;;;;43.88;31.80;;;20.90;33.30;;;;;;6252734;28;20057;-65
2022/03/10 19:38:48;;;;;;;43.28;31.42;;;20.90;33.30;;;;;;6249684;28;20080;-65
2022/03/10 19:41:55;;;;;;;38.53;28.35;;;20.90;33.40;;;;;;6251226;28;20033;-63
2022/03/10 19:44:56;;;;;;;36.90;25.13;;;20.60;32.90;;;;;;6249842;28;20025;-64
2022/03/10 19:47:57;;;;;;;43.88;25.90;;;20.50;33.10;;;;;;6250994;28;20562;-65
2022/03/10 19:50:58;;;;;;;63.63;29.30;;;20.50;37.50;;;;;;6271012;28;20029;-65
2022/03/10 19:53:59;;;;;;;53.55;29.65;;;21.10;36.20;;;;;;6274724;28;20090;-68
2022/03/10 19:56:59;;;;;;;61.85;28.25;;;21.40;34.60;;;;;;6243137;28;20037;-58
2022/03/10 20:00:01;;;;;;;67.47;28.83;;;21.40;56.20;;;;;;6267038;28;20052;-57
2022/03/10 20:03:03;;;;;;;60.15;25.92;;;21.20;57.50;;;;;;6275899;28;20073;-54
2022/03/10 20:06:04;;;;;;;48.65;22.17;;;21.10;58.00;;;;;;6215944;28;20471;-58
2022/03/10 20:09:05;;;;;;;61.08;25.00;;;21.10;58.10;;;;;;6232652;28;20058;-59
2022/03/10 20:12:06;;;;;;;64.57;23.30;;;21.00;57.50;;;;;;6234844;28;20053;-58
2022/03/10 20:15:07;;;;;;;40.77;22.30;;;21.10;57.80;;;;;;6248868;28;20030;-58
2022/03/10 20:18:08;;;;;;;38.63;19.35;;;21.10;57.70;;;;;;6252247;28;20021;-57
2022/03/10 20:21:08;;;;;;;41.25;19.15;;;21.20;58.00;;;;;;6253200;28;20255;-58
2022/03/10 20:24:15;;;;;;;33.40;19.38;;;21.30;58.20;;;;;;6252778;28;20022;-58
2022/03/10 20:27:15;;;;;;;36.63;18.25;;;21.30;58.50;;;;;;6251130;28;20038;-59
2022/03/10 20:30:16;;;;;;;28.80;17.23;;;21.30;58.60;;;;;;6250262;28;20014;-57
2022/03/10 20:33:22;;;;;;;34.78;17.23;;;21.30;58.70;;;;;;6249484;28;20010;-59
2022/03/10 20:36:24;;;;;;;32.25;17.42;;;21.30;58.80;;;;;;6244279;28;20026;-57
2022/03/10 20:39:24;;;;;;;25.75;16.73;;;21.40;59.00;;;;;;6226412;28;20037;-60
2022/03/10 20:42:25;;;;;;;29.80;15.55;;;21.40;59.10;;;;;;6225167;28;20464;-59
2022/03/10 20:45:26;;;;;;;27.25;15.98;;;21.40;59.20;;;;;;6224638;28;20107;-58
2022/03/10 20:48:26;;;;;;;29.42;15.48;;;21.40;59.30;;;;;;6224127;28;20041;-58
2022/03/10 20:51:27;;;;;;;23.02;15.40;;;21.40;59.40;;;;;;6224034;28;20022;-58
2022/03/10 20:54:28;;;;;;;28.88;14.43;;;21.40;59.50;;;;;;6223852;28;20030;-58
2022/03/10 20:57:28;;;;;;;22.85;15.10;;;21.40;59.60;;;;;;6224184;28;20104;-58
2022/03/10 21:00:31;;;;;;;22.80;13.68;;;21.40;60.30;;;;;;6223587;28;20037;-59
2022/03/10 21:03:32;;;;;;;21.20;13.73;;;21.30;59.70;;;;;;6223051;28;20041;-58
2022/03/10 21:06:32;;;;;;;22.38;12.93;;;21.40;59.80;;;;;;6222016;28;20692;-58
2022/03/10 21:09:34;;;;;;;21.50;12.82;;;21.30;59.80;;;;;;6221165;28;20065;-61
2022/03/10 21:12:36;;;;;;;22.42;13.45;;;21.40;60.00;;;;;;6222726;28;20088;-54
2022/03/10 21:15:36;;;;;;;20.67;12.75;;;21.70;46.60;;;;;;6223228;28;20411;-57
2022/03/10 21:18:40;;;;;;;23.83;11.60;;;21.30;41.70;;;;;;6225840;28;20026;-53
2022/03/10 21:21:42;;;;;;;17.23;12.57;;;21.10;40.30;;;;;;6227176;28;20133;-56
2022/03/10 21:24:43;;;;;;;28.38;12.15;;;20.90;39.70;;;;;;6225459;28;20495;-58
2022/03/10 21:27:45;;;;;;;13.57;10.93;;;20.80;39.40;;;;;;6226369;28;20117;-61
2022/03/10 21:30:45;;;;;;;106.97;17.02;;;20.50;39.00;;;;;;6227561;28;20038;-62
